Time;durP1;ratioP1;P1;durP2;ratioP2;P2;SDS_P1;SDS_P2;PMS_P1;PMS_P2;Temp;Humidity;BMP_temperature;BMP_pressure;BME280_temperature;BME280_humidity;BME280_pressure;Samples;Min_cycle;Max_cycle;Signal;HPM_P1;HPM_P2
2022/09/27 00:00:41;;;;;;;1.67;1.42;;;;;;;14.28;63.62;94109.63;5047171;28;20197;-82
2022/09/27 00:03:08;;;;;;;2.03;1.67;;;;;;;14.30;64.03;94104.97;5042716;28;20655;-83
2022/09/27 00:05:35;;;;;;;1.40;1.30;;;;;;;14.23;64.42;94105.16;5043770;28;20732;-82
2022/09/27 00:08:01;;;;;;;1.67;1.50;;;;;;;14.23;64.35;94101.78;5048755;28;20201;-82
2022/09/27 00:10:28;;;;;;;2.20;1.50;;;;;;;14.21;64.44;94091.66;5047584;28;20193;-83
2022/09/27 00:12:55;;;;;;;1.50;1.27;;;;;;;14.10;66.08;94089.91;5048161;28;20312;-81
2022/09/27 00:15:22;;;;;;;1.80;1.50;;;;;;;14.10;65.93;94092.50;5047482;28;20229;-82
2022/09/27 00:17:50;;;;;;;1.67;1.57;;;;;;;14.04;67.45;94091.66;5047460;28;20202;-82
2022/09/27 00:20:18;;;;;;;1.58;1.48;;;;;;;14.02;67.76;94078.16;5032434;28;20206;-82
2022/09/27 00:22:44;;;;;;;1.50;1.40;;;;;;;14.07;67.19;94090.38;5035810;28;20205;-82
2022/09/27 00:25:11;;;;;;;2.20;1.65;;;;;;;14.07;68.49;94091.16;5033321;28;20201;-83
2022/09/27 00:27:37;;;;;;;1.60;1.50;;;;;;;14.06;68.53;94099.16;5034805;28;20345;-82
2022/09/27 00:30:04;;;;;;;1.60;1.50;;;;;;;14.07;69.20;94086.00;5034034;28;20245;-82
2022/09/27 00:32:32;;;;;;;1.45;1.35;;;;;;;14.08;68.08;94097.91;5037383;28;20624;-82
2022/09/27 00:34:58;;;;;;;1.70;1.60;;;;;;;14.12;67.67;94086.06;5043036;28;20264;-83
2022/09/27 00:37:26;;;;;;;3.50;1.50;;;;;;;14.11;68.93;94086.31;5034046;28;20221;-82
2022/09/27 00:39:52;;;;;;;1.50;1.40;;;;;;;14.09;68.61;94080.59;5047056;28;20194;-83
2022/09/27 00:42:19;;;;;;;1.50;1.40;;;;;;;14.11;67.96;94074.16;5048654;28;20198;-82
2022/09/27 00:45:13;;;;;;;1.60;1.50;;;;;;;14.13;69.09;94071.34;5047582;28;20288;-83
2022/09/27 00:47:49;;;;;;;2.05;1.48;;;;;;;14.10;68.93;94074.38;5038850;28;20272;-83
2022/09/27 00:50:28;;;;;;;2.83;1.90;;;;;;;14.10;69.18;94071.81;5034853;28;20197;-83
2022/09/27 00:53:04;;;;;;;1.65;1.50;;;;;;;14.06;69.81;94068.09;5032344;28;20217;-82
2022/09/27 00:55:34;;;;;;;1.55;1.45;;;;;;;14.00;70.58;94076.81;5031895;28;20237;-83
2022/09/27 00:58:03;;;;;;;2.17;1.60;;;;;;;13.99;71.05;94070.88;5027929;28;20218;-82
2022/09/27 01:00:30;;;;;;;1.63;1.40;;;;;;;13.98;71.01;94071.09;5036932;28;20832;-83
2022/09/27 01:02:59;;;;;;;1.70;1.60;;;;;;;13.95;71.36;94069.75;5047894;28;20243;-83
2022/09/27 01:05:28;;;;;;;1.53;1.43;;;;;;;13.97;71.24;94075.50;5032809;28;20222;-82
2022/09/27 01:07:55;;;;;;;1.60;1.50;;;;;;;13.92;71.79;94067.63;5038943;28;20199;-82
2022/09/27 01:10:24;;;;;;;2.73;1.40;;;;;;;13.89;71.59;94069.91;5033155;28;20193;-82
2022/09/27 01:12:59;;;;;;;1.88;1.70;;;;;;;13.89;71.47;94060.34;5034689;28;20209;-82
2022/09/27 01:15:33;;;;;;;1.55;1.45;;;;;;;13.93;71.06;94056.28;5034955;28;20244;-81
2022/09/27 01:18:15;;;;;;;2.10;1.67;;;;;;;13.88;71.48;94047.63;5033183;28;20323;-82
2022/09/27 01:21:15;;;;;;;3.63;1.40;;;;;;;13.82;70.92;94047.56;5034139;28;20201;-82
2022/09/27 01:24:02;;;;;;;1.73;1.42;;;;;;;13.78;71.30;94045.69;5033434;28;20277;-82
2022/09/27 01:26:46;;;;;;;2.28;1.50;;;;;;;13.78;71.95;94045.69;5032533;28;20810;-83
2022/09/27 01:29:22;;;;;;;2.00;1.75;;;;;;;13.76;72.37;94050.28;5028803;28;20198;-83
2022/09/27 01:32:01;;;;;;;1.50;1.40;;;;;;;13.69;72.70;94037.50;5034420;28;20252;-83
2022/09/27 01:34:41;;;;;;;1.57;1.47;;;;;;;13.65;73.23;94033.84;5042162;28;20214;-82
2022/09/27 01:37:13;;;;;;;1.70;1.60;;;;;;;13.58;73.54;94027.22;5027315;28;20225;-82
2022/09/27 01:39:49;;;;;;;1.93;1.80;;;;;;;13.45;74.02;94034.28;5032632;28;20790;-82
2022/09/27 01:42:23;;;;;;;2.50;1.67;;;;;;;13.35;74.98;94035.88;5029588;28;20280;-83
2022/09/27 01:44:54;;;;;;;2.93;1.80;;;;;;;13.36;75.56;94027.09;5046183;28;20197;-82
2022/09/27 01:47:25;;;;;;;2.77;1.87;;;;;;;13.38;76.20;94033.63;5045920;28;20221;-82
2022/09/27 01:49:56;;;;;;;1.80;1.70;;;;;;;13.42;76.35;94045.06;5033597;28;20782;-83
2022/09/27 01:52:27;;;;;;;2.27;1.90;;;;;;;13.29;77.18;94031.63;5033434;28;20260;-83
2022/09/27 01:54:58;;;;;;;1.80;1.70;;;;;;;13.35;76.75;94028.91;5041988;28;20217;-83
2022/09/27 01:57:27;;;;;;;1.83;1.70;;;;;;;13.39;77.55;94029.22;5034165;28;20225;-82
2022/09/27 01:59:59;;;;;;;2.33;1.80;;;;;;;13.28;78.77;94030.06;5033857;28;20194;-82
2022/09/27 02:02:31;;;;;;;1.90;1.80;;;;;;;13.32;78.11;94023.41;5033161;28;20256;-83
2022/09/27 02:05:01;;;;;;;3.33;2.20;;;;;;;13.32;78.28;94023.41;5034984;28;20224;-82
2022/09/27 02:07:36;;;;;;;2.33;1.97;;;;;;;13.33;79.07;94024.97;5043357;28;20244;-82
2022/09/27 02:10:06;;;;;;;2.20;2.00;;;;;;;13.30;79.08;94020.28;5011090;28;20813;-82
2022/09/27 02:12:39;;;;;;;2.97;2.10;;;;;;;13.21;79.32;94012.13;5023391;28;20206;-83
2022/09/27 02:15:12;;;;;;;2.20;2.00;;;;;;;13.12;79.06;94024.56;5047409;28;20543;-83
2022/09/27 02:17:44;;;;;;;2.33;2.13;;;;;;;13.15;79.13;94015.63;5050292;28;20197;-83
2022/09/27 02:20:18;;;;;;;2.13;1.90;;;;;;;13.21;79.80;94021.66;5030962;28;20594;-82
2022/09/27 02:22:49;;;;;;;2.17;1.97;;;;;;;13.24;79.86;94023.78;5038027;28;20849;-83
2022/09/27 02:25:20;;;;;;;3.40;2.27;;;;;;;13.23;80.67;94020.44;5036267;28;20794;-83
2022/09/27 02:27:55;;;;;;;2.33;2.10;;;;;;;13.19;80.39;94019.31;5034076;28;20646;-83
2022/09/27 02:30:21;;;;;;;2.63;2.10;;;;;;;13.19;80.85;94005.59;5039548;28;20206;-82
2022/09/27 02:32:49;;;;;;;2.17;2.00;;;;;;;13.18;82.19;94015.16;5040816;28;20233;-82
2022/09/27 02:35:19;;;;;;;2.33;2.13;;;;;;;13.16;81.51;94011.22;5040357;28;20288;-84
2022/09/27 02:37:46;;;;;;;2.03;1.83;;;;;;;13.21;81.73;94008.75;5037332;28;20614;-82
2022/09/27 02:40:13;;;;;;;2.20;2.00;;;;;;;13.19;81.68;93997.84;5036076;28;20555;-83
2022/09/27 02:42:42;;;;;;;2.93;2.10;;;;;;;13.24;81.01;93995.38;5037448;28;20202;-83
2022/09/27 02:45:11;;;;;;;2.37;2.10;;;;;;;13.25;81.68;93999.53;5027225;28;20256;-82
2022/09/27 02:47:55;;;;;;;2.10;1.90;;;;;;;13.25;82.20;93997.72;5036758;28;20263;-82
2022/09/27 02:50:52;;;;;;;2.73;2.00;;;;;;;13.23;82.23;94004.13;5031473;28;20658;-83
2022/09/27 02:53:29;;;;;;;2.07;1.90;;;;;;;13.19;82.99;93980.56;5030911;28;20308;-82
2022/09/27 02:56:03;;;;;;;2.93;2.30;;;;;;;13.15;83.33;93976.84;5036110;28;20225;-83
2022/09/27 02:58:42;;;;;;;2.43;2.20;;;;;;;13.16;83.21;93981.00;5035870;28;20214;-82
2022/09/27 03:01:12;;;;;;;2.27;1.73;;;;;;;13.10;83.51;93977.50;5039591;28;20225;-83
2022/09/27 03:03:46;;;;;;;2.20;1.90;;;;;;;13.14;83.50;93973.44;5036329;28;20194;-82
2022/09/27 03:06:16;;;;;;;2.40;2.10;;;;;;;13.16;82.98;93965.50;5028909;28;20257;-82
2022/09/27 03:08:43;;;;;;;1.83;1.73;;;;;;;13.15;83.53;93963.94;5041940;28;20214;-82
2022/09/27 03:11:10;;;;;;;2.27;2.00;;;;;;;13.14;83.79;93970.88;5037107;28;20194;-83
2022/09/27 03:13:37;;;;;;;2.13;1.93;;;;;;;13.12;84.18;93961.78;5049462;28;20786;-82
2022/09/27 03:16:05;;;;;;;6.77;2.20;;;;;;;13.12;83.09;93967.72;5046324;28;20242;-83
2022/09/27 03:18:31;;;;;;;1.80;1.70;;;;;;;13.11;83.78;93962.78;5034841;28;20206;-82
2022/09/27 03:20:59;;;;;;;4.17;1.80;;;;;;;13.12;83.21;93957.41;5048610;28;20205;-82
2022/09/27 03:23:26;;;;;;;3.20;1.97;;;;;;;13.10;83.65;93956.84;5050268;28;20252;-81
2022/09/27 03:25:53;;;;;;;3.37;2.07;;;;;;;13.09;84.36;93951.91;5047429;28;20244;-83
2022/09/27 03:28:20;;;;;;;2.47;1.87;;;;;;;13.02;83.95;93948.69;5049023;28;20204;-81
2022/09/27 03:30:47;;;;;;;1.90;1.80;;;;;;;12.99;83.88;93951.72;5048300;28;20204;-82
2022/09/27 03:33:13;;;;;;;3.03;1.93;;;;;;;13.06;83.94;93949.81;5038993;28;20201;-83
2022/09/27 03:35:41;;;;;;;2.57;2.07;;;;;;;13.11;83.62;93937.75;5033928;28;20296;-83
2022/09/27 03:38:09;;;;;;;2.40;1.90;;;;;;;13.11;84.21;93940.31;5035289;28;20194;-83
2022/09/27 03:40:36;;;;;;;3.05;2.25;;;;;;;13.11;83.37;93939.53;5035160;28;20214;-82
2022/09/27 03:43:03;;;;;;;2.27;2.07;;;;;;;13.03;85.34;93943.28;5046307;28;20217;-82
2022/09/27 03:45:29;;;;;;;3.43;2.07;;;;;;;13.05;84.78;93943.06;5040300;28;20237;-82
2022/09/27 03:47:55;;;;;;;2.93;2.00;;;;;;;13.08;84.75;93940.03;5045786;28;20194;-81
2022/09/27 03:50:22;;;;;;;2.07;1.87;;;;;;;13.12;83.87;93930.78;5033900;28;20617;-82
2022/09/27 03:52:48;;;;;;;2.07;1.87;;;;;;;13.14;83.61;93926.94;5036254;28;20210;-82
2022/09/27 03:55:16;;;;;;;2.43;2.23;;;;;;;13.13;83.34;93927.97;5033932;28;20237;-82
2022/09/27 03:57:45;;;;;;;2.80;1.93;;;;;;;13.15;83.63;93925.19;5035267;28;20268;-82
2022/09/27 04:00:13;;;;;;;2.20;2.00;;;;;;;13.15;83.57;93940.69;5034197;28;20209;-81
2022/09/27 04:02:39;;;;;;;2.60;1.90;;;;;;;12.99;83.23;93931.84;5016703;28;20210;-82
2022/09/27 04:05:06;;;;;;;2.37;1.90;;;;;;;13.00;83.25;93937.81;5033195;28;20209;-83
2022/09/27 04:07:33;;;;;;;2.57;2.10;;;;;;;12.89;83.72;93934.28;5034304;28;20210;-82
2022/09/27 04:09:59;;;;;;;2.20;2.00;;;;;;;12.89;83.06;93926.53;5035337;28;20201;-83
2022/09/27 04:12:27;;;;;;;1.87;1.77;;;;;;;12.98;82.83;93919.16;5034127;28;20194;-82
2022/09/27 04:14:54;;;;;;;2.97;1.73;;;;;;;13.02;83.93;93915.13;5034597;28;20230;-82
2022/09/27 04:17:21;;;;;;;2.03;1.93;;;;;;;13.01;83.36;93921.28;5034171;28;20300;-83
2022/09/27 04:19:47;;;;;;;2.10;1.90;;;;;;;12.98;82.45;93925.13;5035285;28;20236;-82
2022/09/27 04:22:14;;;;;;;2.13;1.93;;;;;;;12.92;82.81;93920.88;5033229;28;20206;-82
2022/09/27 04:24:41;;;;;;;1.90;1.80;;;;;;;12.85;82.85;93922.81;5034022;28;20193;-83
2022/09/27 04:27:07;;;;;;;2.20;2.00;;;;;;;12.80;83.05;93931.25;5033599;28;20287;-83
2022/09/27 04:29:35;;;;;;;2.63;2.00;;;;;;;12.88;82.92;93931.91;5033375;28;20198;-82
2022/09/27 04:32:01;;;;;;;1.90;1.80;;;;;;;12.85;82.92;93929.78;5037626;28;20229;-82
2022/09/27 04:37:10;;;;;;;1.60;1.50;;;;;;;12.72;83.37;93933.41;5041429;28;20249;-83
2022/09/27 04:39:38;;;;;;;1.53;1.43;;;;;;;12.66;83.39;93932.53;5045301;28;20293;-82
2022/09/27 04:42:05;;;;;;;3.73;1.70;;;;;;;12.67;83.45;93930.75;5049220;28;20197;-82
2022/09/27 04:44:31;;;;;;;1.87;1.50;;;;;;;12.60;83.59;93930.09;5052907;28;20600;-83
2022/09/27 04:46:59;;;;;;;1.60;1.50;;;;;;;12.60;83.83;93930.88;5052311;28;20233;-82
2022/09/27 04:49:25;;;;;;;1.60;1.50;;;;;;;12.58;83.85;93932.91;5052002;28;20267;-81
2022/09/27 04:51:52;;;;;;;1.83;1.73;;;;;;;12.66;83.75;93926.59;5051564;28;20672;-82
2022/09/27 04:54:18;;;;;;;1.77;1.67;;;;;;;12.58;83.69;93940.63;5036766;28;20233;-82
2022/09/27 04:56:44;;;;;;;1.60;1.40;;;;;;;12.61;85.81;93945.34;5029191;28;20811;-82
2022/09/27 04:59:11;;;;;;;2.03;1.40;;;;;;;12.68;85.66;93952.97;5033094;28;20202;-84
2022/09/27 05:01:38;;;;;;;1.47;1.37;;;;;;;12.86;86.12;93950.22;5029666;28;20206;-83
2022/09/27 05:04:05;;;;;;;1.50;1.40;;;;;;;12.90;82.89;93948.72;5020681;28;20284;-82
2022/09/27 05:06:32;;;;;;;3.17;1.70;;;;;;;12.97;82.42;93961.50;5030882;28;20226;-83
2022/09/27 05:08:58;;;;;;;1.83;1.73;;;;;;;12.93;82.56;93960.41;5030109;28;20206;-81
2022/09/27 05:11:25;;;;;;;1.70;1.60;;;;;;;12.69;83.32;93952.75;5025701;28;20204;-83
2022/09/27 05:13:51;;;;;;;1.60;1.50;;;;;;;12.69;83.53;93950.16;5030728;28;20221;-82
2022/09/27 05:16:18;;;;;;;1.47;1.37;;;;;;;12.57;84.05;93961.53;5030182;28;20272;-82
2022/09/27 05:18:45;;;;;;;1.70;1.60;;;;;;;12.63;83.98;93956.25;5030667;28;20206;-82
2022/09/27 05:21:13;;;;;;;3.43;1.60;;;;;;;12.59;84.35;93962.88;5031353;28;20198;-83
2022/09/27 05:23:40;;;;;;;1.47;1.37;;;;;;;12.48;84.13;93971.44;5032325;28;20197;-82
2022/09/27 05:26:07;;;;;;;1.50;1.40;;;;;;;12.49;84.60;93972.22;5027736;28;20234;-80
2022/09/27 05:28:34;;;;;;;1.87;1.60;;;;;;;12.38;83.82;93974.56;5030844;28;20198;-82
2022/09/27 05:31:01;;;;;;;2.67;1.30;;;;;;;12.45;83.72;93964.91;5031091;28;20288;-83
2022/09/27 05:33:27;;;;;;;1.43;1.30;;;;;;;12.51;84.98;93970.94;5030272;28;20264;-83
2022/09/27 05:35:54;;;;;;;1.50;1.40;;;;;;;12.52;84.43;93964.78;5030032;28;20873;-82
2022/09/27 05:38:22;;;;;;;1.70;1.00;;;;;;;12.47;83.13;93966.50;5030861;28;20213;-82
2022/09/27 05:40:50;;;;;;;1.13;0.97;;;;;;;12.51;83.30;93975.34;5030679;28;20257;-82
2022/09/27 05:43:17;;;;;;;1.17;0.90;;;;;;;12.46;82.55;93973.44;5029302;28;20677;-81
2022/09/27 05:45:44;;;;;;;6.90;5.87;;;;;;;12.48;82.56;93983.56;5029899;28;20233;-83
2022/09/27 05:48:12;;;;;;;1.70;1.50;;;;;;;12.43;81.86;93986.81;5030762;28;20248;-82
2022/09/27 05:50:39;;;;;;;1.20;1.10;;;;;;;12.36;82.28;93986.91;5032030;28;20671;-82
2022/09/27 05:53:06;;;;;;;1.90;0.90;;;;;;;12.33;81.47;93984.78;5035960;28;20187;-81
2022/09/27 05:55:34;;;;;;;0.80;0.80;;;;;;;12.27;81.77;93980.53;5034303;28;20237;-82
2022/09/27 05:58:02;;;;;;;1.17;0.90;;;;;;;12.35;81.55;93985.34;5027031;28;20209;-83
2022/09/27 06:00:29;;;;;;;0.93;0.93;;;;;;;12.34;81.44;93988.16;5034355;28;20236;-83
2022/09/27 06:02:57;;;;;;;1.00;0.90;;;;;;;12.32;81.00;93990.97;5034761;28;20198;-82
2022/09/27 06:05:25;;;;;;;2.30;0.90;;;;;;;12.26;81.13;93989.28;5034200;28;20226;-83
2022/09/27 06:07:51;;;;;;;1.63;0.80;;;;;;;12.21;81.09;93989.19;5034795;28;20744;-81
2022/09/27 06:10:19;;;;;;;1.13;0.80;;;;;;;12.07;81.15;93995.59;5034225;28;20348;-82
2022/09/27 06:12:47;;;;;;;1.13;0.90;;;;;;;12.05;81.74;93995.81;5034994;28;20217;-81
2022/09/27 06:15:14;;;;;;;1.90;0.80;;;;;;;12.01;81.46;93992.09;5033934;28;20222;-81
2022/09/27 06:17:40;;;;;;;0.97;0.83;;;;;;;11.87;81.18;93998.50;5034982;28;20617;-81
2022/09/27 06:20:08;;;;;;;4.43;3.30;;;;;;;11.98;81.34;94014.97;5032774;28;20213;-83
2022/09/27 06:22:35;;;;;;;1.40;1.30;;;;;;;11.97;81.65;94014.19;5034924;28;20678;-82
2022/09/27 06:25:04;;;;;;;0.80;0.80;;;;;;;12.01;82.09;94023.03;5034567;28;20285;-82
2022/09/27 06:27:31;;;;;;;1.10;0.70;;;;;;;12.11;81.24;94027.66;5033561;28;20221;-82
2022/09/27 06:29:59;;;;;;;1.63;0.90;;;;;;;12.15;81.09;94036.50;5034348;28;20252;-83
2022/09/27 06:32:25;;;;;;;0.90;0.70;;;;;;;12.16;80.70;94037.28;5034435;28;20209;-82
2022/09/27 06:34:52;;;;;;;3.03;1.10;;;;;;;12.16;80.51;94034.72;5035014;28;20225;-82
2022/09/27 06:37:18;;;;;;;1.10;1.00;;;;;;;12.17;79.93;94042.22;5032914;28;20230;-81
2022/09/27 06:39:44;;;;;;;0.90;0.80;;;;;;;12.42;78.67;94040.22;5034778;28;20626;-81
2022/09/27 06:42:11;;;;;;;1.30;1.00;;;;;;;12.60;76.88;94049.63;5034892;28;20666;-83
2022/09/27 06:44:38;;;;;;;0.70;0.70;;;;;;;12.78;76.04;94048.72;5034909;28;20212;-83
2022/09/27 06:47:05;;;;;;;1.20;0.90;;;;;;;13.25;74.81;94062.34;5033700;28;20253;-82
2022/09/27 06:49:32;;;;;;;3.03;2.10;;;;;;;13.37;73.17;94052.72;5034295;28;20264;-81
2022/09/27 06:51:58;;;;;;;6.43;4.77;;;;;;;13.46;73.28;94063.50;5032473;28;20211;-82
2022/09/27 06:54:25;;;;;;;2.03;1.10;;;;;;;13.29;73.00;94060.84;5033219;28;20256;-82
2022/09/27 06:56:51;;;;;;;1.07;0.90;;;;;;;13.34;71.97;94060.94;5032750;28;20230;-81
2022/09/27 07:02:02;;;;;;;1.73;0.83;;;;;;;13.70;69.76;94067.53;5033846;28;20202;-81
2022/09/27 07:04:29;;;;;;;1.27;1.00;;;;;;;13.60;70.22;94079.50;5033742;28;20203;-83
2022/09/27 07:06:56;;;;;;;2.63;0.93;;;;;;;13.31;70.01;94084.66;5033008;28;20265;-81
2022/09/27 07:09:22;;;;;;;2.30;0.90;;;;;;;13.06;70.69;94097.06;5031653;28;20202;-83
2022/09/27 07:11:49;;;;;;;2.10;1.10;;;;;;;12.90;70.80;94088.19;5017810;28;20237;-82
2022/09/27 07:14:16;;;;;;;2.70;1.07;;;;;;;12.79;70.57;94083.84;5013816;28;20203;-82
2022/09/27 07:16:42;;;;;;;1.27;1.10;;;;;;;12.80;70.76;94077.69;5013841;28;20235;-82
2022/09/27 07:19:10;;;;;;;2.80;1.10;;;;;;;12.83;72.15;94084.19;5014475;28;20214;-83
2022/09/27 07:21:38;;;;;;;2.10;1.00;;;;;;;12.82;71.75;94078.25;5014390;28;20199;-82
2022/09/27 07:24:04;;;;;;;4.00;0.90;;;;;;;12.92;71.52;94077.66;5015089;28;20294;-83
2022/09/27 07:26:31;;;;;;;0.80;0.80;;;;;;;12.92;71.52;94077.66;5032074;28;20284;-83
2022/09/27 07:28:58;;;;;;;2.80;1.10;;;;;;;12.85;72.18;94082.97;5033721;28;20209;-83
2022/09/27 07:31:24;;;;;;;1.50;1.13;;;;;;;12.88;71.43;94081.72;5031921;28;20202;-83
2022/09/27 07:33:52;;;;;;;1.83;1.10;;;;;;;13.06;72.12;94079.78;5033245;28;20589;-83
2022/09/27 07:36:18;;;;;;;2.93;1.10;;;;;;;13.16;71.73;94084.38;5032716;28;20276;-82
2022/09/27 07:38:46;;;;;;;2.23;1.27;;;;;;;13.14;71.92;94092.31;5033900;28;20198;-83
2022/09/27 07:41:14;;;;;;;1.00;0.80;;;;;;;13.12;71.45;94083.22;5031851;28;20202;-83
2022/09/27 07:43:43;;;;;;;2.00;1.13;;;;;;;13.01;71.63;94079.66;5033522;28;20230;-81
2022/09/27 07:46:09;;;;;;;2.40;1.50;;;;;;;13.24;71.10;94080.66;5032549;28;20314;-82
2022/09/27 07:48:36;;;;;;;2.30;1.50;;;;;;;13.62;69.77;94093.00;5032754;28;20201;-82
2022/09/27 07:51:09;;;;;;;3.20;0.70;;;;;;;13.78;68.34;94097.41;5031039;28;20236;-81
2022/09/27 07:53:36;;;;;;;1.93;0.73;;;;;;;14.22;66.48;94087.28;5033130;28;20710;-83
2022/09/27 07:56:03;;;;;;;0.57;0.57;;;;;;;14.66;64.41;94090.78;5032653;28;20246;-82
2022/09/27 07:58:31;;;;;;;0.97;0.60;;;;;;;15.11;62.78;94088.81;5031579;28;20214;-83
2022/09/27 08:00:59;;;;;;;0.90;0.52;;;;;;;15.43;60.08;94091.50;5033694;28;20245;-81
2022/09/27 08:03:26;;;;;;;0.60;0.60;;;;;;;15.05;60.86;94099.34;5034074;28;20195;-83
2022/09/27 08:05:52;;;;;;;0.82;0.77;;;;;;;14.56;63.14;94114.75;5032704;28;20709;-83
2022/09/27 08:08:18;;;;;;;1.27;0.75;;;;;;;14.18;66.27;94136.91;5032984;28;20206;-82
2022/09/27 08:10:45;;;;;;;1.00;0.50;;;;;;;13.62;69.24;94162.81;5033222;28;20198;-83
2022/09/27 08:13:16;;;;;;;0.77;0.50;;;;;;;13.08;71.31;94162.22;5031609;28;20195;-82
2022/09/27 08:15:43;;;;;;;0.77;0.60;;;;;;;12.83;73.67;94169.41;5033105;28;20317;-82
2022/09/27 08:18:09;;;;;;;0.50;0.50;;;;;;;12.67;73.30;94166.50;5033050;28;20603;-83
2022/09/27 08:20:36;;;;;;;0.50;0.50;;;;;;;12.44;72.03;94164.69;5032622;28;20209;-83
2022/09/27 08:23:03;;;;;;;0.67;0.40;;;;;;;12.27;72.72;94174.06;5033202;28;20206;-81
2022/09/27 08:25:29;;;;;;;0.60;0.50;;;;;;;12.09;73.67;94176.72;5032594;28;20233;-83
2022/09/27 08:27:57;;;;;;;0.40;0.40;;;;;;;12.00;73.83;94180.59;5032392;28;20229;-83
2022/09/27 08:30:25;;;;;;;0.50;0.50;;;;;;;11.91;74.05;94174.97;5031082;28;20256;-81
2022/09/27 08:32:55;;;;;;;0.53;0.53;;;;;;;11.96;74.36;94179.47;5032932;28;20206;-82
2022/09/27 08:35:21;;;;;;;0.97;0.60;;;;;;;11.94;75.49;94192.56;5016180;28;20238;-83
2022/09/27 08:37:53;;;;;;;1.67;0.93;;;;;;;12.04;76.42;94187.69;5014431;28;20206;-82
2022/09/27 08:40:22;;;;;;;0.80;0.70;;;;;;;12.15;75.68;94188.72;5013326;28;20333;-83
2022/09/27 08:42:59;;;;;;;1.03;0.90;;;;;;;12.29;75.53;94190.13;5013039;28;20265;-83
2022/09/27 08:45:32;;;;;;;0.80;0.60;;;;;;;12.58;75.44;94196.22;5018015;28;20225;-83
2022/09/27 08:48:01;;;;;;;0.60;0.60;;;;;;;12.68;74.82;94186.16;5032011;28;20205;-82
2022/09/27 08:50:30;;;;;;;0.80;0.60;;;;;;;12.79;73.48;94182.78;5031913;28;20216;-82
2022/09/27 08:53:00;;;;;;;0.70;0.60;;;;;;;13.08;72.56;94177.72;5032351;28;20198;-83
2022/09/27 08:55:32;;;;;;;0.73;0.70;;;;;;;13.71;69.78;94182.91;5031761;28;20295;-82
2022/09/27 08:57:59;;;;;;;1.07;0.70;;;;;;;13.64;69.98;94187.44;5032218;28;20202;-83
2022/09/27 09:00:29;;;;;;;1.07;0.80;;;;;;;13.46;70.53;94182.44;5032280;28;20202;-83
2022/09/27 09:02:56;;;;;;;0.60;0.60;;;;;;;13.34;70.78;94187.59;5030689;28;20248;-83
2022/09/27 09:05:30;;;;;;;1.20;0.63;;;;;;;12.92;69.49;94191.31;5032225;28;20304;-83
2022/09/27 09:08:19;;;;;;;0.67;0.60;;;;;;;12.94;70.29;94191.88;5032064;28;20209;-83
2022/09/27 09:14:01;;;;;;;0.80;0.80;;;;;;;13.09;70.13;94190.41;5032432;28;20200;-83
2022/09/27 09:16:42;;;;;;;0.67;0.67;;;;;;;13.25;68.94;94188.97;5031612;28;20295;-82
2022/09/27 09:19:22;;;;;;;2.23;0.80;;;;;;;13.90;68.11;94191.28;5030281;28;20226;-83
2022/09/27 09:21:56;;;;;;;1.27;0.70;;;;;;;14.33;64.62;94192.53;5031686;28;20243;-82
2022/09/27 09:24:37;;;;;;;0.80;0.80;;;;;;;14.78;63.74;94189.94;5032120;28;20205;-83
2022/09/27 09:27:09;;;;;;;1.23;0.70;;;;;;;15.00;62.01;94174.44;5033278;28;20284;-82
2022/09/27 09:30:04;;;;;;;0.88;0.50;;;;;;;14.98;61.67;94192.03;5035957;28;20248;-82
2022/09/27 09:32:46;;;;;;;0.80;0.65;;;;;;;15.05;61.88;94188.25;5028195;28;20213;-82
2022/09/27 09:35:19;;;;;;;0.50;0.50;;;;;;;14.77;62.10;94183.19;5028105;28;20950;-82
2022/09/27 09:37:49;;;;;;;0.60;0.45;;;;;;;14.48;62.91;94196.19;5035050;28;20615;-83
2022/09/27 09:40:21;;;;;;;0.60;0.60;;;;;;;14.04;63.02;94207.31;5034990;28;20206;-82
2022/09/27 09:42:52;;;;;;;0.50;0.50;;;;;;;13.79;64.09;94202.47;5034960;28;20210;-82
2022/09/27 09:45:22;;;;;;;0.60;0.60;;;;;;;13.80;65.67;94204.81;5034800;28;20222;-82
2022/09/27 09:47:57;;;;;;;0.63;0.63;;;;;;;13.69;65.64;94195.28;5035258;28;20206;-82
2022/09/27 09:50:26;;;;;;;1.08;0.77;;;;;;;13.47;66.15;94202.84;5033012;28;20194;-81
2022/09/27 09:52:57;;;;;;;1.17;0.70;;;;;;;13.23;65.47;94209.09;5034817;28;20229;-82
2022/09/27 09:55:28;;;;;;;1.67;0.70;;;;;;;13.12;66.35;94208.03;5034007;28;20261;-82
2022/09/27 09:58:03;;;;;;;0.60;0.60;;;;;;;13.25;66.41;94199.31;5034553;28;20198;-82
2022/09/27 10:00:30;;;;;;;0.80;0.60;;;;;;;13.29;66.22;94213.34;5034557;28;20197;-82
2022/09/27 10:03:00;;;;;;;0.50;0.50;;;;;;;13.25;65.18;94199.31;5034745;28;20647;-83
2022/09/27 10:05:28;;;;;;;40.13;33.73;;;;;;;13.08;66.08;94211.31;5015172;28;20683;-83
2022/09/27 10:07:58;;;;;;;1.63;1.53;;;;;;;13.10;66.76;94222.97;5033194;28;20209;-83
2022/09/27 10:10:25;;;;;;;1.30;0.70;;;;;;;13.08;66.79;94222.41;5035076;28;20209;-83
2022/09/27 10:12:51;;;;;;;0.50;0.50;;;;;;;13.03;66.34;94216.38;5036386;28;20264;-82
2022/09/27 10:15:20;;;;;;;0.93;0.67;;;;;;;13.05;67.41;94227.28;5033757;28;20308;-81
2022/09/27 10:17:50;;;;;;;2.63;0.77;;;;;;;13.05;66.97;94222.88;5035019;28;20206;-81
2022/09/27 10:20:28;;;;;;;0.60;0.60;;;;;;;13.21;66.89;94229.19;5034861;28;20198;-81
2022/09/27 10:23:00;;;;;;;0.50;0.50;;;;;;;13.10;66.79;94222.19;5033083;28;20205;-82
2022/09/27 10:25:46;;;;;;;2.90;0.70;;;;;;;13.00;67.49;94225.34;5034022;28;20226;-81
2022/09/27 10:28:26;;;;;;;2.20;1.00;;;;;;;13.01;67.43;94224.34;5034226;28;20276;-80
2022/09/27 10:30:56;;;;;;;1.10;0.70;;;;;;;13.17;67.58;94232.47;5033626;28;20260;-81
2022/09/27 10:33:23;;;;;;;0.97;0.80;;;;;;;13.21;67.81;94239.53;5034087;28;20297;-82
2022/09/27 10:35:52;;;;;;;0.70;0.70;;;;;;;13.21;68.59;94236.16;5033276;28;20261;-82
2022/09/27 10:38:24;;;;;;;8.03;6.43;;;;;;;13.08;68.73;94243.09;5031346;28;21008;-82
2022/09/27 10:40:54;;;;;;;1.50;1.30;;;;;;;12.80;70.93;94258.47;5033550;28;20584;-81
2022/09/27 10:43:30;;;;;;;1.60;0.70;;;;;;;12.59;72.35;94259.75;5035010;28;20202;-83
2022/09/27 10:46:06;;;;;;;0.80;0.80;;;;;;;12.58;73.08;94257.41;5040374;28;20248;-82
2022/09/27 10:48:32;;;;;;;0.80;0.70;;;;;;;12.63;72.73;94250.56;5054231;28;20231;-82
2022/09/27 10:51:02;;;;;;;1.00;0.90;;;;;;;12.53;73.64;94250.31;5054028;28;20201;-80
2022/09/27 10:53:30;;;;;;;0.70;0.70;;;;;;;12.58;73.82;94247.88;5054313;28;20205;-82
2022/09/27 10:55:57;;;;;;;0.70;0.70;;;;;;;12.60;73.74;94239.91;5032513;28;20234;-83
2022/09/27 10:58:27;;;;;;;0.93;0.73;;;;;;;12.98;73.12;94236.91;5034153;28;20224;-83
2022/09/27 11:01:01;;;;;;;0.83;0.80;;;;;;;13.32;72.46;94236.16;5032459;28;20202;-83
2022/09/27 11:03:29;;;;;;;0.80;0.80;;;;;;;13.69;72.43;94238.47;5033838;28;20208;-84
2022/09/27 11:05:55;;;;;;;1.00;0.80;;;;;;;13.85;71.23;94235.19;5034687;28;20300;-82
2022/09/27 11:08:29;;;;;;;2.17;0.90;;;;;;;14.05;71.52;94237.34;5034299;28;20213;-81
2022/09/27 11:11:15;;;;;;;1.20;1.00;;;;;;;14.09;72.35;94230.69;5032922;28;20213;-82
2022/09/27 11:13:41;;;;;;;0.90;0.80;;;;;;;14.07;71.17;94228.31;5035060;28;20220;-81
2022/09/27 11:16:21;;;;;;;1.00;0.90;;;;;;;13.99;69.95;94226.13;5033881;28;20249;-82
2022/09/27 11:18:55;;;;;;;1.10;0.90;;;;;;;13.84;68.87;94228.44;5034888;28;20198;-82
2022/09/27 11:21:30;;;;;;;1.05;0.90;;;;;;;13.60;69.63;94234.66;5034600;28;20727;-83
2022/09/27 11:24:16;;;;;;;0.90;0.80;;;;;;;13.20;69.29;94232.81;5033802;28;20208;-82
2022/09/27 11:26:55;;;;;;;1.33;1.10;;;;;;;13.04;69.58;94236.81;5031037;28;20238;-82
2022/09/27 11:29:31;;;;;;;1.27;0.80;;;;;;;12.78;68.51;94232.84;5034069;28;20224;-82
2022/09/27 11:32:14;;;;;;;0.97;0.70;;;;;;;12.58;69.14;94236.75;5033249;28;20202;-82
2022/09/27 11:34:57;;;;;;;0.70;0.70;;;;;;;12.50;69.14;94234.50;5033508;28;20222;-83
2022/09/27 11:37:31;;;;;;;1.13;0.87;;;;;;;12.50;69.68;94222.38;5032816;28;20222;-83
2022/09/27 11:40:11;;;;;;;3.00;2.70;;;;;;;12.45;70.38;94230.78;5032716;28;20269;-83
2022/09/27 11:42:55;;;;;;;4.30;0.70;;;;;;;12.29;69.20;94243.53;5031251;28;20275;-82
2022/09/27 11:45:36;;;;;;;0.77;0.77;;;;;;;12.38;70.33;94235.25;5032778;28;20681;-82
2022/09/27 11:48:14;;;;;;;0.63;0.63;;;;;;;12.61;70.46;94231.16;5031836;28;20209;-81
2022/09/27 11:50:55;;;;;;;1.57;0.83;;;;;;;12.98;70.88;94226.59;5032979;28;20206;-82
2022/09/27 11:53:35;;;;;;;0.70;0.70;;;;;;;13.17;70.54;94229.88;5032480;28;20618;-82
2022/09/27 11:56:14;;;;;;;0.93;0.70;;;;;;;13.05;69.32;94217.72;5032024;28;20230;-83